Time;durP1;ratioP1;P1;durP2;ratioP2;P2;SDS_P1;SDS_P2;PMS_P1;PMS_P2;Temp;Humidity;BMP_temperature;BMP_pressure;BME280_temperature;BME280_humidity;BME280_pressure;Samples;Min_cycle;Max_cycle;Signal;HPM_P1;HPM_P2
2022/06/17 00:00:50;;;;;;;11.35;3.97;;;;;;;;;;5110360;28;20020;-80
2022/06/17 00:03:16;;;;;;;8.05;3.63;;;;;;;;;;5110067;28;20026;-81
2022/06/17 00:05:42;;;;;;;11.75;3.92;;;;;;;;;;5110081;28;20483;-81
2022/06/17 00:08:37;;;;;;;10.25;3.85;;;;;;;;;;5109991;28;20113;-80
2022/06/17 00:11:03;;;;;;;10.10;3.80;;;;;;;;;;5107712;28;20043;-79
2022/06/17 00:13:29;;;;;;;11.77;3.60;;;;;;;;;;5113286;28;20023;-78
2022/06/17 00:15:54;;;;;;;12.50;3.70;;;;;;;;;;5113471;27;20487;-80
2022/06/17 00:18:20;;;;;;;9.75;3.95;;;;;;;;;;5113569;28;20027;-79
2022/06/17 00:20:48;;;;;;;10.95;4.38;;;;;;;;;;5113533;28;20084;-80
2022/06/17 00:23:16;;;;;;;13.50;4.05;;;;;;;;;;5113662;28;20399;-80
2022/06/17 00:25:45;;;;;;;11.57;3.95;;;;;;;;;;5113592;28;20627;-81
2022/06/17 00:28:20;;;;;;;9.80;3.72;;;;;;;;;;5113455;28;20088;-81
2022/06/17 00:30:46;;;;;;;8.77;4.22;;;;;;;;;;5113419;28;20031;-76
2022/06/17 00:33:13;;;;;;;9.93;3.90;;;;;;;;;;5113216;28;20050;-73
2022/06/17 00:35:45;;;;;;;13.07;4.05;;;;;;;;;;5112990;28;20114;-79
2022/06/17 00:38:17;;;;;;;10.70;3.60;;;;;;;;;;5113152;28;20102;-77
2022/06/17 00:40:44;;;;;;;16.00;4.20;;;;;;;;;;5113406;28;20130;-73
2022/06/17 00:43:31;;;;;;;11.85;4.05;;;;;;;;;;5113248;28;20027;-72
2022/06/17 00:46:24;;;;;;;16.38;4.05;;;;;;;;;;5113073;28;20032;-74
2022/06/17 00:49:19;;;;;;;15.80;3.80;;;;;;;;;;5112895;28;20084;-77
2022/06/17 00:52:05;;;;;;;11.88;4.18;;;;;;;;;;5110460;28;20077;-73
2022/06/17 00:54:41;;;;;;;14.98;4.30;;;;;;;;;;5112508;28;20111;-74
2022/06/17 00:57:38;;;;;;;9.43;4.25;;;;;;;;;;5112704;28;20039;-74
2022/06/17 01:00:07;;;;;;;15.25;4.60;;;;;;;;;;5112243;28;20040;-73
2022/06/17 01:02:36;;;;;;;9.80;4.00;;;;;;;;;;5112952;28;20023;-76
2022/06/17 01:05:03;;;;;;;10.45;4.10;;;;;;;;;;5112894;28;20028;-79
2022/06/17 01:07:34;;;;;;;12.48;4.25;;;;;;;;;;5112693;28;20091;-79
2022/06/17 01:10:08;;;;;;;15.68;4.18;;;;;;;;;;5112516;28;20024;-78
2022/06/17 01:12:42;;;;;;;13.00;4.45;;;;;;;;;;5112771;28;20027;-79
2022/06/17 01:15:09;;;;;;;16.13;4.60;;;;;;;;;;5112318;28;20517;-81
2022/06/17 01:17:39;;;;;;;15.50;4.80;;;;;;;;;;5112384;28;20429;-80
2022/06/17 01:20:08;;;;;;;14.25;4.30;;;;;;;;;;5112533;28;20386;-79
2022/06/17 01:22:45;;;;;;;18.40;4.53;;;;;;;;;;5112524;28;20046;-79
2022/06/17 01:25:16;;;;;;;18.02;4.43;;;;;;;;;;5112283;28;20072;-79
2022/06/17 01:28:06;;;;;;;14.32;4.22;;;;;;;;;;5112337;28;20019;-80
2022/06/17 01:30:40;;;;;;;10.93;4.40;;;;;;;;;;5098497;28;20586;-80
2022/06/17 01:33:16;;;;;;;19.35;4.13;;;;;;;;;;5112275;28;20436;-81
2022/06/17 01:35:44;;;;;;;18.90;4.53;;;;;;;;;;5112046;28;20024;-79
2022/06/17 01:38:10;;;;;;;15.75;4.20;;;;;;;;;;5111900;28;20028;-78
2022/06/17 01:40:36;;;;;;;13.32;4.10;;;;;;;;;;5112081;28;20020;-80
2022/06/17 01:43:05;;;;;;;18.23;4.18;;;;;;;;;;5112242;28;20388;-80
2022/06/17 01:45:32;;;;;;;12.63;4.10;;;;;;;;;;5112114;28;20045;-80
2022/06/17 01:47:58;;;;;;;16.15;4.53;;;;;;;;;;5097623;28;20522;-81
2022/06/17 01:50:26;;;;;;;12.50;4.30;;;;;;;;;;5091113;28;20102;-73
2022/06/17 01:53:03;;;;;;;15.57;4.13;;;;;;;;;;5091246;28;20271;-73
2022/06/17 01:55:49;;;;;;;13.60;4.35;;;;;;;;;;5091264;28;20107;-81
2022/06/17 01:58:24;;;;;;;15.65;4.57;;;;;;;;;;5091351;28;20020;-81
2022/06/17 02:00:50;;;;;;;12.60;4.40;;;;;;;;;;5091294;28;20133;-80
2022/06/17 02:03:23;;;;;;;13.27;4.60;;;;;;;;;;5091285;28;20107;-80
2022/06/17 02:05:53;;;;;;;17.70;5.15;;;;;;;;;;5091302;28;20027;-80
2022/06/17 02:08:19;;;;;;;15.23;4.90;;;;;;;;;;5091092;28;20038;-79
2022/06/17 02:10:47;;;;;;;22.08;4.70;;;;;;;;;;5090922;28;20028;-80
2022/06/17 02:13:14;;;;;;;19.17;4.93;;;;;;;;;;5091247;28;20058;-80
2022/06/17 02:15:40;;;;;;;13.15;4.45;;;;;;;;;;5091174;28;20101;-81
2022/06/17 02:18:11;;;;;;;20.00;4.57;;;;;;;;;;5091164;28;20067;-80
2022/06/17 02:20:38;;;;;;;20.85;4.90;;;;;;;;;;5091037;28;20372;-80
2022/06/17 02:23:05;;;;;;;17.58;4.85;;;;;;;;;;5091364;28;20050;-79
2022/06/17 02:25:43;;;;;;;13.65;4.50;;;;;;;;;;5090756;28;20020;-80
2022/06/17 02:28:10;;;;;;;14.80;4.45;;;;;;;;;;5090549;28;20438;-80
2022/06/17 02:30:37;;;;;;;19.42;4.70;;;;;;;;;;5090411;28;20020;-73
2022/06/17 02:33:04;;;;;;;13.18;4.35;;;;;;;;;;5090672;28;20040;-78
2022/06/17 02:35:54;;;;;;;14.77;4.57;;;;;;;;;;5090228;28;20475;-80
2022/06/17 02:38:22;;;;;;;14.13;4.15;;;;;;;;;;5090655;28;20024;-80
2022/06/17 02:40:52;;;;;;;10.63;4.18;;;;;;;;;;5090892;28;20036;-79
2022/06/17 02:43:22;;;;;;;16.40;4.70;;;;;;;;;;5090737;28;20038;-80
2022/06/17 02:45:53;;;;;;;14.57;4.32;;;;;;;;;;5090584;28;20035;-77
2022/06/17 02:48:27;;;;;;;13.38;4.13;;;;;;;;;;5090425;28;20596;-80
2022/06/17 02:50:56;;;;;;;13.70;4.03;;;;;;;;;;5090041;28;20039;-79
2022/06/17 02:53:27;;;;;;;15.65;4.70;;;;;;;;;;5090594;28;20035;-79
2022/06/17 02:55:53;;;;;;;13.25;4.20;;;;;;;;;;5090370;28;20020;-78
2022/06/17 02:58:43;;;;;;;18.60;5.05;;;;;;;;;;5090529;28;20510;-79
2022/06/17 03:01:20;;;;;;;15.60;4.82;;;;;;;;;;5090416;28;20054;-81
2022/06/17 03:03:46;;;;;;;22.90;4.60;;;;;;;;;;5090885;28;20089;-79
2022/06/17 03:06:20;;;;;;;15.88;4.22;;;;;;;;;;5090254;28;20074;-80
2022/06/17 03:08:49;;;;;;;15.32;4.55;;;;;;;;;;5090146;28;20040;-78
2022/06/17 03:11:15;;;;;;;14.10;4.60;;;;;;;;;;5090191;28;20365;-80
2022/06/17 03:13:48;;;;;;;17.75;4.47;;;;;;;;;;5090358;28;20480;-79
2022/06/17 03:16:15;;;;;;;14.82;4.00;;;;;;;;;;5090075;28;20032;-78
2022/06/17 03:18:44;;;;;;;10.48;4.07;;;;;;;;;;5090149;28;20069;-75
2022/06/17 03:21:10;;;;;;;15.55;4.57;;;;;;;;;;5089913;28;20107;-73
2022/06/17 03:23:55;;;;;;;13.65;4.72;;;;;;;;;;5090030;28;20127;-80
2022/06/17 03:26:25;;;;;;;11.65;4.28;;;;;;;;;;5090035;28;20043;-73
2022/06/17 03:28:51;;;;;;;17.67;4.43;;;;;;;;;;5089840;28;20032;-76
2022/06/17 03:31:22;;;;;;;14.00;4.13;;;;;;;;;;5089851;28;20115;-74
2022/06/17 03:34:11;;;;;;;14.02;4.50;;;;;;;;;;5090227;28;20411;-75
2022/06/17 03:36:44;;;;;;;11.48;4.55;;;;;;;;;;5089863;28;20605;-74
2022/06/17 03:39:37;;;;;;;13.95;4.60;;;;;;;;;;5089965;28;20488;-73
2022/06/17 03:42:07;;;;;;;13.95;4.43;;;;;;;;;;5079179;28;20400;-72
2022/06/17 03:44:39;;;;;;;15.10;4.27;;;;;;;;;;5090148;28;20050;-78
2022/06/17 03:47:39;;;;;;;13.20;4.30;;;;;;;;;;5090734;28;20290;-74
2022/06/17 03:50:08;;;;;;;16.33;4.53;;;;;;;;;;5075868;28;20130;-77
2022/06/17 03:52:52;;;;;;;14.43;4.40;;;;;;;;;;5093537;28;20020;-73
2022/06/17 03:55:20;;;;;;;12.50;4.10;;;;;;;;;;5093621;28;20020;-73
2022/06/17 03:57:49;;;;;;;16.38;4.50;;;;;;;;;;5093431;28;20499;-74
2022/06/17 04:00:51;;;;;;;14.82;4.60;;;;;;;;;;5093523;28;20024;-73
2022/06/17 04:03:20;;;;;;;12.43;4.35;;;;;;;;;;5058807;28;20067;-74
2022/06/17 04:05:51;;;;;;;16.27;4.45;;;;;;;;;;5093317;28;20024;-76
2022/06/17 04:08:16;;;;;;;;;;;;;;;;;;5093633;28;20028;-73
2022/06/17 04:10:41;;;;;;;15.67;4.40;;;;;;;;;;5093393;28;19912;-74
2022/06/17 04:13:13;;;;;;;14.75;4.07;;;;;;;;;;5074938;28;20290;-77
2022/06/17 04:15:44;;;;;;;12.95;4.30;;;;;;;;;;5075192;28;20426;-79
2022/06/17 04:18:10;;;;;;;12.52;4.57;;;;;;;;;;5093125;28;20526;-75
2022/06/17 04:20:50;;;;;;;21.77;5.05;;;;;;;;;;5093060;28;20024;-74
2022/06/17 04:23:17;;;;;;;;;;;;;;;;;;5093504;28;20020;-79
2022/06/17 04:25:48;;;;;;;13.15;4.47;;;;;;;;;;5093124;28;19938;-80
2022/06/17 04:28:19;;;;;;;14.73;4.45;;;;;;;;;;5092528;28;20475;-80
2022/06/17 04:30:55;;;;;;;13.68;4.65;;;;;;;;;;5093076;28;20028;-80
2022/06/17 04:33:29;;;;;;;15.77;4.10;;;;;;;;;;5092819;28;20081;-80
2022/06/17 04:36:13;;;;;;;15.50;4.53;;;;;;;;;;5093066;28;20059;-79
2022/06/17 04:38:56;;;;;;;12.48;4.13;;;;;;;;;;5092851;28;20475;-73
2022/06/17 04:41:26;;;;;;;16.02;4.32;;;;;;;;;;5092832;28;20031;-77
2022/06/17 04:43:54;;;;;;;13.77;4.70;;;;;;;;;;5092825;28;20020;-74
2022/06/17 04:46:49;;;;;;;11.90;4.50;;;;;;;;;;5074513;28;20119;-80
2022/06/17 04:49:19;;;;;;;16.83;4.53;;;;;;;;;;5105131;28;20057;-80
2022/06/17 04:51:45;;;;;;;11.20;4.43;;;;;;;;;;5112930;28;20421;-80
2022/06/17 04:54:12;;;;;;;16.65;4.45;;;;;;;;;;5113219;28;20015;-80
2022/06/17 04:56:45;;;;;;;20.92;4.45;;;;;;;;;;5113156;28;20027;-78
2022/06/17 04:59:40;;;;;;;13.15;4.50;;;;;;;;;;5112853;28;20039;-81
2022/06/17 05:02:12;;;;;;;12.13;4.30;;;;;;;;;;5112656;28;20039;-74
2022/06/17 05:04:38;;;;;;;15.05;4.28;;;;;;;;;;5112726;28;20025;-73
2022/06/17 05:07:04;;;;;;;12.82;4.15;;;;;;;;;;5112638;28;20038;-81
2022/06/17 05:09:42;;;;;;;13.18;4.32;;;;;;;;;;5112695;28;20074;-75
2022/06/17 05:12:15;;;;;;;16.95;4.75;;;;;;;;;;5112603;28;20052;-80
2022/06/17 05:14:46;;;;;;;10.88;4.28;;;;;;;;;;5112914;27;20505;-80
2022/06/17 05:17:11;;;;;;;18.15;4.32;;;;;;;;;;5112446;28;20426;-80
2022/06/17 05:19:37;;;;;;;16.38;4.68;;;;;;;;;;5112475;28;20515;-76
2022/06/17 05:22:13;;;;;;;16.23;4.00;;;;;;;;;;5111956;28;20028;-81
2022/06/17 05:24:38;;;;;;;14.07;4.32;;;;;;;;;;5112556;28;20080;-80
2022/06/17 05:27:04;;;;;;;13.30;4.60;;;;;;;;;;5112187;28;20059;-81
2022/06/17 05:29:29;;;;;;;15.50;4.25;;;;;;;;;;5112396;28;20031;-77
2022/06/17 05:31:55;;;;;;;13.68;4.20;;;;;;;;;;5112161;28;20087;-80
2022/06/17 05:34:20;;;;;;;13.85;4.22;;;;;;;;;;5112263;28;20038;-81
2022/06/17 05:36:46;;;;;;;13.57;4.32;;;;;;;;;;5112312;28;20090;-81
2022/06/17 05:39:11;;;;;;;13.13;4.03;;;;;;;;;;5111665;28;20030;-80
2022/06/17 05:41:37;;;;;;;12.18;4.20;;;;;;;;;;5112016;28;20034;-81
2022/06/17 05:44:02;;;;;;;12.50;4.10;;;;;;;;;;5111717;28;20031;-80
2022/06/17 05:46:28;;;;;;;12.27;4.00;;;;;;;;;;5112065;28;20063;-81
2022/06/17 05:48:53;;;;;;;15.95;4.40;;;;;;;;;;5091687;28;20047;-80
2022/06/17 05:51:19;;;;;;;13.63;4.22;;;;;;;;;;5091430;28;20059;-80
2022/06/17 05:53:44;;;;;;;14.98;4.35;;;;;;;;;;5091365;28;20500;-80
2022/06/17 05:56:10;;;;;;;9.63;3.92;;;;;;;;;;5091292;28;20024;-80
2022/06/17 05:58:35;;;;;;;13.65;4.00;;;;;;;;;;5090920;28;20032;-80
2022/06/17 06:01:01;;;;;;;11.00;4.15;;;;;;;;;;5091195;28;20621;-74
2022/06/17 06:03:28;;;;;;;12.90;4.10;;;;;;;;;;5091244;28;20448;-74
2022/06/17 06:05:54;;;;;;;13.38;4.07;;;;;;;;;;5091155;28;20102;-79
2022/06/17 06:08:19;;;;;;;17.08;4.20;;;;;;;;;;5090772;28;20120;-73
2022/06/17 06:10:44;;;;;;;14.25;4.22;;;;;;;;;;5090462;28;20056;-73
2022/06/17 06:13:19;;;;;;;14.77;4.50;;;;;;;;;;5091000;28;20107;-76
2022/06/17 06:15:47;;;;;;;17.50;4.00;;;;;;;;;;5091029;28;20039;-73
2022/06/17 06:18:19;;;;;;;16.92;4.10;;;;;;;;;;5090560;28;20043;-75
2022/06/17 06:20:46;;;;;;;15.15;4.10;;;;;;;;;;5090746;28;20028;-74
2022/06/17 06:23:11;;;;;;;13.65;3.72;;;;;;;;;;5090521;28;20099;-75
2022/06/17 06:25:36;;;;;;;21.10;4.65;;;;;;;;;;5091075;28;20103;-73
2022/06/17 06:28:11;;;;;;;16.88;4.60;;;;;;;;;;5072206;28;20031;-73
2022/06/17 06:30:37;;;;;;;16.52;4.38;;;;;;;;;;5091042;28;20032;-74
2022/06/17 06:33:03;;;;;;;17.77;4.28;;;;;;;;;;5090616;28;20088;-73
2022/06/17 06:35:31;;;;;;;15.52;4.35;;;;;;;;;;5090510;28;20571;-74
2022/06/17 06:37:57;;;;;;;18.05;4.55;;;;;;;;;;5090221;28;20518;-81
2022/06/17 06:40:23;;;;;;;14.00;4.40;;;;;;;;;;5090419;28;20023;-74
2022/06/17 06:42:50;;;;;;;20.33;4.85;;;;;;;;;;5090373;28;20020;-73
2022/06/17 06:45:27;;;;;;;14.43;4.05;;;;;;;;;;5090675;28;20024;-73
2022/06/17 06:47:56;;;;;;;12.98;4.57;;;;;;;;;;5090228;28;20608;-73
2022/06/17 06:50:24;;;;;;;19.08;4.82;;;;;;;;;;5090400;28;20149;-75
2022/06/17 06:52:50;;;;;;;16.83;4.60;;;;;;;;;;5090256;28;20020;-75
2022/06/17 06:55:16;;;;;;;18.85;4.93;;;;;;;;;;5090339;28;20085;-73
2022/06/17 06:57:49;;;;;;;15.80;4.68;;;;;;;;;;5090295;28;20158;-74
2022/06/17 07:00:24;;;;;;;21.02;5.20;;;;;;;;;;5090144;28;20107;-73
2022/06/17 07:02:49;;;;;;;21.27;5.00;;;;;;;;;;5090344;28;20024;-74
2022/06/17 07:05:15;;;;;;;16.13;4.82;;;;;;;;;;5090215;28;20020;-75
2022/06/17 07:07:42;;;;;;;15.48;4.60;;;;;;;;;;5090318;28;20028;-75
2022/06/17 07:10:11;;;;;;;22.13;5.10;;;;;;;;;;5089860;28;20032;-75
2022/06/17 07:12:36;;;;;;;27.08;5.10;;;;;;;;;;5090465;28;20028;-74
2022/06/17 07:15:03;;;;;;;16.20;4.90;;;;;;;;;;5090040;28;20028;-74
2022/06/17 07:17:29;;;;;;;19.90;4.68;;;;;;;;;;5071888;28;20074;-74
2022/06/17 07:19:54;;;;;;;13.90;4.68;;;;;;;;;;5089645;28;20441;-75
2022/06/17 07:22:20;;;;;;;17.08;4.88;;;;;;;;;;5093667;28;20111;-74
2022/06/17 07:24:46;;;;;;;18.80;4.80;;;;;;;;;;5094352;28;20067;-74
2022/06/17 07:27:11;;;;;;;17.75;4.70;;;;;;;;;;5094387;28;20023;-73
2022/06/17 07:29:37;;;;;;;16.75;4.85;;;;;;;;;;5075789;28;20020;-79
2022/06/17 07:32:02;;;;;;;17.83;4.85;;;;;;;;;;5094475;28;20020;-80
2022/06/17 07:34:28;;;;;;;17.30;4.85;;;;;;;;;;5093732;28;20020;-80
2022/06/17 07:39:57;;;;;;;21.25;5.00;;;;;;;;;;5093748;28;20403;-80
2022/06/17 07:42:37;;;;;;;22.63;4.53;;;;;;;;;;5094008;28;20024;-80
2022/06/17 07:45:10;;;;;;;17.33;4.68;;;;;;;;;;5095106;28;20024;-79
2022/06/17 07:47:36;;;;;;;16.25;4.50;;;;;;;;;;5094863;28;20082;-80
2022/06/17 07:50:03;;;;;;;27.55;4.93;;;;;;;;;;5076496;28;20055;-80
2022/06/17 07:52:28;;;;;;;18.17;4.38;;;;;;;;;;5094573;28;20032;-80
2022/06/17 07:54:54;;;;;;;14.02;4.32;;;;;;;;;;5094524;28;20020;-79
2022/06/17 07:57:19;;;;;;;19.60;4.88;;;;;;;;;;5094870;28;20391;-80
2022/06/17 07:59:45;;;;;;;17.48;4.22;;;;;;;;;;5094464;28;20028;-74
2022/06/17 08:02:10;;;;;;;19.73;4.30;;;;;;;;;;5099747;28;20052;-73
2022/06/17 08:04:36;;;;;;;15.95;4.82;;;;;;;;;;5088264;28;20148;-77
2022/06/17 08:07:03;;;;;;;18.85;4.20;;;;;;;;;;5105759;28;20019;-79
2022/06/17 08:09:28;;;;;;;15.88;4.00;;;;;;;;;;5104732;28;20035;-74
2022/06/17 08:11:54;;;;;;;12.48;3.97;;;;;;;;;;5105226;28;20025;-79
2022/06/17 08:14:19;;;;;;;17.35;3.90;;;;;;;;;;5108002;28;20023;-79
2022/06/17 08:16:45;;;;;;;13.77;4.43;;;;;;;;;;5104133;28;20028;-81
2022/06/17 08:19:11;;;;;;;15.35;4.40;;;;;;;;;;5094209;28;20036;-79
2022/06/17 08:21:36;;;;;;;22.08;4.40;;;;;;;;;;5075482;28;20042;-79
2022/06/17 08:24:02;;;;;;;12.75;4.07;;;;;;;;;;5093839;28;20024;-79
2022/06/17 08:26:28;;;;;;;13.73;4.45;;;;;;;;;;5093792;28;20028;-80
2022/06/17 08:28:53;;;;;;;15.05;4.30;;;;;;;;;;5092961;28;20093;-80
2022/06/17 08:31:18;;;;;;;16.75;4.20;;;;;;;;;;5092940;28;20146;-79
2022/06/17 08:33:45;;;;;;;13.20;4.20;;;;;;;;;;5092429;28;20024;-80
2022/06/17 08:36:17;;;;;;;14.75;4.20;;;;;;;;;;5092995;28;20089;-80
2022/06/17 08:38:50;;;;;;;14.57;4.00;;;;;;;;;;5093018;28;20043;-80
2022/06/17 08:41:28;;;;;;;13.57;4.15;;;;;;;;;;5092800;28;20012;-80
2022/06/17 08:44:05;;;;;;;13.55;4.00;;;;;;;;;;5093023;28;20022;-80
2022/06/17 08:46:37;;;;;;;17.70;4.35;;;;;;;;;;5092865;28;20492;-80
2022/06/17 08:49:27;;;;;;;12.48;3.90;;;;;;;;;;5092718;28;20082;-80
2022/06/17 08:52:01;;;;;;;11.85;4.25;;;;;;;;;;5092814;28;20047;-80
2022/06/17 08:54:38;;;;;;;13.75;4.13;;;;;;;;;;5092601;28;20020;-80
2022/06/17 08:57:16;;;;;;;12.13;4.40;;;;;;;;;;5093240;28;20032;-79
2022/06/17 08:59:54;;;;;;;9.13;3.85;;;;;;;;;;5092433;28;20034;-77
2022/06/17 09:02:19;;;;;;;11.55;4.22;;;;;;;;;;5092762;28;20019;-78
2022/06/17 09:05:12;;;;;;;11.65;4.32;;;;;;;;;;5092559;28;20387;-77
2022/06/17 09:07:59;;;;;;;14.55;4.07;;;;;;;;;;5092519;28;20030;-79
2022/06/17 09:10:50;;;;;;;15.15;4.60;;;;;;;;;;5091872;28;20103;-77
2022/06/17 09:13:30;;;;;;;16.67;4.40;;;;;;;;;;5092966;28;20024;-80
2022/06/17 09:16:04;;;;;;;15.02;4.22;;;;;;;;;;5092549;28;20081;-74
2022/06/17 09:18:36;;;;;;;16.35;4.35;;;;;;;;;;5092379;28;20039;-74
2022/06/17 09:21:12;;;;;;;13.95;4.60;;;;;;;;;;5091548;28;20119;-73
2022/06/17 09:23:39;;;;;;;17.77;4.38;;;;;;;;;;5092338;28;20028;-73
2022/06/17 09:26:11;;;;;;;13.63;4.10;;;;;;;;;;5092057;28;20074;-75
2022/06/17 09:28:57;;;;;;;17.33;4.55;;;;;;;;;;5091750;28;20028;-74
2022/06/17 09:31:32;;;;;;;16.92;3.90;;;;;;;;;;5091162;28;20432;-73
2022/06/17 09:34:21;;;;;;;12.13;4.40;;;;;;;;;;5091845;28;20035;-74
2022/06/17 09:37:31;;;;;;;12.27;4.30;;;;;;;;;;5091856;28;20024;-74
2022/06/17 09:40:02;;;;;;;14.23;4.53;;;;;;;;;;5082896;28;20039;-74
2022/06/17 09:42:36;;;;;;;16.02;4.43;;;;;;;;;;5091445;28;20032;-78
2022/06/17 09:45:17;;;;;;;16.38;4.32;;;;;;;;;;5091286;28;20020;-73
2022/06/17 09:47:56;;;;;;;12.13;3.80;;;;;;;;;;5091195;28;20133;-76
2022/06/17 09:50:29;;;;;;;17.52;4.00;;;;;;;;;;5091270;28;20492;-74
2022/06/17 09:53:32;;;;;;;11.43;3.95;;;;;;;;;;5091802;28;20140;-74
2022/06/17 09:56:06;;;;;;;11.60;3.90;;;;;;;;;;5039059;28;20047;-75
2022/06/17 09:58:41;;;;;;;13.85;4.03;;;;;;;;;;5091420;28;20024;-74
2022/06/17 10:01:07;;;;;;;15.05;4.00;;;;;;;;;;5090955;28;20048;-74
2022/06/17 10:03:35;;;;;;;14.68;4.03;;;;;;;;;;5091178;28;20078;-76
2022/06/17 10:06:23;;;;;;;12.88;4.00;;;;;;;;;;5091534;28;20016;-80
2022/06/17 10:09:19;;;;;;;16.63;4.00;;;;;;;;;;5091189;28;20025;-73
2022/06/17 10:12:03;;;;;;;12.68;4.00;;;;;;;;;;5091248;28;20262;-79
2022/06/17 10:14:47;;;;;;;13.15;4.03;;;;;;;;;;5091276;28;20032;-77
2022/06/17 10:20:37;;;;;;;15.30;4.28;;;;;;;;;;5091195;28;20083;-79
2022/06/17 10:23:18;;;;;;;15.70;3.97;;;;;;;;;;5072998;28;20029;-80
2022/06/17 10:26:08;;;;;;;17.33;4.30;;;;;;;;;;5091141;28;20060;-73
2022/06/17 10:28:45;;;;;;;14.10;3.42;;;;;;;;;;5072856;28;20028;-80
2022/06/17 10:31:22;;;;;;;13.10;3.72;;;;;;;;;;5090413;28;20020;-80
2022/06/17 10:33:48;;;;;;;10.45;3.50;;;;;;;;;;5090747;28;20074;-79
2022/06/17 10:36:14;;;;;;;12.15;3.00;;;;;;;;;;5090360;28;20116;-80
2022/06/17 10:38:46;;;;;;;11.45;3.40;;;;;;;;;;5090594;28;20047;-81
2022/06/17 10:41:13;;;;;;;15.70;3.55;;;;;;;;;;5090111;28;20020;-75
2022/06/17 10:43:50;;;;;;;13.07;3.42;;;;;;;;;;5090339;28;20103;-79
2022/06/17 10:46:20;;;;;;;12.27;3.72;;;;;;;;;;5090554;28;20457;-80
2022/06/17 10:48:50;;;;;;;;;;;;;;;;;;5090935;28;20044;-80
2022/06/17 10:51:16;;;;;;;18.45;4.03;;;;;;;;;;5090118;28;19912;-74
2022/06/17 10:53:56;;;;;;;13.27;3.60;;;;;;;;;;5090514;28;20024;-75
2022/06/17 10:56:26;;;;;;;11.30;3.58;;;;;;;;;;5089650;28;20024;-77
2022/06/17 10:59:04;;;;;;;8.95;3.50;;;;;;;;;;5090375;28;20500;-75
2022/06/17 11:02:01;;;;;;;13.65;3.85;;;;;;;;;;5089967;28;20024;-74
2022/06/17 11:04:30;;;;;;;11.38;3.42;;;;;;;;;;5034624;28;20039;-79
2022/06/17 11:07:01;;;;;;;12.23;3.28;;;;;;;;;;5089965;28;20054;-77
2022/06/17 11:09:45;;;;;;;10.98;3.42;;;;;;;;;;5090366;28;20036;-78
2022/06/17 11:12:19;;;;;;;10.88;3.50;;;;;;;;;;5090103;28;20508;-77
2022/06/17 11:14:45;;;;;;;12.32;3.65;;;;;;;;;;5090684;28;20028;-79
2022/06/17 11:17:39;;;;;;;9.05;3.25;;;;;;;;;;5090129;28;20024;-76
2022/06/17 11:20:19;;;;;;;9.40;2.95;;;;;;;;;;5090037;28;20066;-81
2022/06/17 11:23:15;;;;;;;17.05;3.20;;;;;;;;;;5089930;28;20033;-79
2022/06/17 11:25:42;;;;;;;9.75;3.50;;;;;;;;;;5081729;28;20067;-80
2022/06/17 11:28:16;;;;;;;11.55;3.30;;;;;;;;;;5090016;28;20597;-80
2022/06/17 11:30:56;;;;;;;12.65;3.33;;;;;;;;;;5089995;28;20115;-77
2022/06/17 11:33:32;;;;;;;10.48;3.10;;;;;;;;;;5089911;28;20017;-79
2022/06/17 11:36:06;;;;;;;11.15;3.65;;;;;;;;;;5089915;28;20058;-81
2022/06/17 11:38:33;;;;;;;11.10;3.88;;;;;;;;;;5089990;28;20105;-81
2022/06/17 11:41:00;;;;;;;10.57;3.35;;;;;;;;;;5089642;28;20032;-80
2022/06/17 11:43:38;;;;;;;14.75;3.63;;;;;;;;;;5089830;28;20027;-79
2022/06/17 11:46:09;;;;;;;11.07;3.67;;;;;;;;;;5090110;28;20028;-77
2022/06/17 11:48:42;;;;;;;14.23;3.65;;;;;;;;;;5089786;28;20503;-74
2022/06/17 11:51:16;;;;;;;9.73;3.33;;;;;;;;;;5089698;28;20415;-75
2022/06/17 11:54:09;;;;;;;13.07;3.20;;;;;;;;;;5090124;28;20016;-74
2022/06/17 11:56:38;;;;;;;10.73;3.30;;;;;;;;;;5071935;28;20052;-77
2022/06/17 11:59:15;;;;;;;15.60;3.57;;;;;;;;;;5089757;28;20403;-78
2022/06/17 12:01:47;;;;;;;13.18;3.25;;;;;;;;;;5089342;28;20032;-76
2022/06/17 12:04:40;;;;;;;16.55;3.38;;;;;;;;;;5089849;28;20028;-74
2022/06/17 12:07:29;;;;;;;13.20;3.50;;;;;;;;;;5089506;28;20380;-78
2022/06/17 12:10:19;;;;;;;15.10;3.13;;;;;;;;;;5093447;28;20437;-79
2022/06/17 12:12:46;;;;;;;12.75;3.30;;;;;;;;;;5093504;28;20032;-76
2022/06/17 12:15:24;;;;;;;9.50;3.03;;;;;;;;;;5093429;28;20045;-75
2022/06/17 12:17:50;;;;;;;12.80;3.25;;;;;;;;;;5093037;28;20028;-80
2022/06/17 12:20:22;;;;;;;12.95;3.72;;;;;;;;;;5092945;28;20032;-79
2022/06/17 12:23:03;;;;;;;12.88;3.40;;;;;;;;;;5093331;28;20061;-75
2022/06/17 12:25:42;;;;;;;14.40;3.80;;;;;;;;;;5093432;28;20039;-80
2022/06/17 12:28:24;;;;;;;15.25;3.50;;;;;;;;;;5093189;28;20024;-79
2022/06/17 12:31:15;;;;;;;15.07;3.63;;;;;;;;;;5093270;28;20055;-76
2022/06/17 12:33:54;;;;;;;24.27;3.72;;;;;;;;;;5092868;28;20028;-79
2022/06/17 12:36:25;;;;;;;17.80;3.50;;;;;;;;;;5092717;28;20077;-79
2022/06/17 12:39:10;;;;;;;14.20;3.70;;;;;;;;;;5092482;28;20031;-74
2022/06/17 12:41:40;;;;;;;15.98;3.38;;;;;;;;;;5092723;28;20536;-74
2022/06/17 12:44:09;;;;;;;15.77;3.53;;;;;;;;;;5092731;28;20016;-79
2022/06/17 12:47:00;;;;;;;17.40;3.60;;;;;;;;;;5092834;28;20028;-80
2022/06/17 12:55:34;;;;;;;16.58;3.13;;;;;;;;;;5092873;28;20487;-80
2022/06/17 12:58:22;;;;;;;18.23;3.50;;;;;;;;;;5037216;28;20044;-79
2022/06/17 13:00:52;;;;;;;15.75;3.40;;;;;;;;;;5092218;28;20040;-78
2022/06/17 13:03:42;;;;;;;20.38;3.60;;;;;;;;;;5092182;28;20024;-77
2022/06/17 13:06:20;;;;;;;14.70;3.30;;;;;;;;;;5092343;28;20055;-79
2022/06/17 13:08:54;;;;;;;17.70;3.45;;;;;;;;;;5091998;28;20103;-76
2022/06/17 13:11:38;;;;;;;11.75;3.42;;;;;;;;;;5092031;28;20020;-73
2022/06/17 13:14:31;;;;;;;18.65;3.33;;;;;;;;;;5091966;28;20059;-74
2022/06/17 13:17:00;;;;;;;15.18;3.40;;;;;;;;;;5091955;28;20024;-74
2022/06/17 13:19:50;;;;;;;16.23;3.37;;;;;;;;;;5073554;28;20024;-74
2022/06/17 13:22:57;;;;;;;18.13;3.30;;;;;;;;;;5091687;28;20262;-74
2022/06/17 13:25:34;;;;;;;17.38;3.45;;;;;;;;;;5029574;28;20064;-74
2022/06/17 13:28:28;;;;;;;12.70;3.40;;;;;;;;;;5086361;28;20598;-74
2022/06/17 13:31:00;;;;;;;14.90;3.60;;;;;;;;;;5091661;28;20404;-73
2022/06/17 13:33:59;;;;;;;12.57;3.53;;;;;;;;;;5091415;28;20040;-75
2022/06/17 13:36:42;;;;;;;18.13;3.70;;;;;;;;;;5079697;28;20044;-77
2022/06/17 13:39:13;;;;;;;21.70;3.70;;;;;;;;;;5091501;28;20459;-76
2022/06/17 13:42:05;;;;;;;13.73;3.25;;;;;;;;;;5091688;28;20100;-76
2022/06/17 13:44:55;;;;;;;15.95;3.50;;;;;;;;;;5088241;28;20511;-80
2022/06/17 13:47:32;;;;;;;12.93;3.58;;;;;;;;;;5091530;28;20044;-74
2022/06/17 13:50:04;;;;;;;16.85;3.70;;;;;;;;;;5091850;28;20164;-73
2022/06/17 13:53:07;;;;;;;14.82;3.55;;;;;;;;;;5091001;28;20031;-74
2022/06/17 13:55:51;;;;;;;21.38;3.70;;;;;;;;;;5039387;28;20036;-79
2022/06/17 13:58:24;;;;;;;14.40;3.80;;;;;;;;;;5091259;28;20111;-79
2022/06/17 14:00:56;;;;;;;15.45;3.60;;;;;;;;;;5091518;28;20028;-73
2022/06/17 14:03:23;;;;;;;20.90;4.22;;;;;;;;;;5091162;28;20020;-74
2022/06/17 14:06:03;;;;;;;20.02;3.88;;;;;;;;;;5091259;28;20035;-74
2022/06/17 14:08:50;;;;;;;23.27;4.25;;;;;;;;;;5090877;28;20028;-74
2022/06/17 14:11:32;;;;;;;21.88;4.50;;;;;;;;;;5090691;28;20043;-74
2022/06/17 14:14:19;;;;;;;23.52;4.00;;;;;;;;;;5090800;28;20020;-74
2022/06/17 14:16:54;;;;;;;22.45;4.22;;;;;;;;;;5090927;28;20028;-75
2022/06/17 14:19:26;;;;;;;24.15;4.55;;;;;;;;;;5090892;28;20024;-74
2022/06/17 14:21:55;;;;;;;24.50;4.20;;;;;;;;;;5090504;28;20059;-77
2022/06/17 14:24:42;;;;;;;29.00;4.28;;;;;;;;;;5090738;28;20108;-76
2022/06/17 14:27:23;;;;;;;20.83;4.18;;;;;;;;;;5090921;28;20107;-76
2022/06/17 14:30:10;;;;;;;19.17;4.05;;;;;;;;;;5090279;28;20587;-75
2022/06/17 14:32:49;;;;;;;22.48;4.47;;;;;;;;;;5090455;28;20480;-74
2022/06/17 14:35:26;;;;;;;26.00;4.57;;;;;;;;;;5090347;28;20031;-73
2022/06/17 14:38:31;;;;;;;19.88;4.22;;;;;;;;;;5090661;28;20035;-72
2022/06/17 14:44:20;;;;;;;24.00;4.20;;;;;;;;;;5090838;28;20039;-73
2022/06/17 14:47:20;;;;;;;27.10;4.07;;;;;;;;;;5090541;28;20016;-73
2022/06/17 14:50:14;;;;;;;20.65;4.10;;;;;;;;;;5090256;28;20057;-73
2022/06/17 14:52:52;;;;;;;27.35;4.30;;;;;;;;;;5090070;28;20431;-79
2022/06/17 14:55:26;;;;;;;29.40;4.47;;;;;;;;;;5090099;28;20396;-74
2022/06/17 14:58:00;;;;;;;27.10;4.43;;;;;;;;;;5090488;28;20111;-73
2022/06/17 15:00:32;;;;;;;29.48;4.63;;;;;;;;;;5090515;28;20046;-74
2022/06/17 15:02:59;;;;;;;26.02;4.40;;;;;;;;;;5090394;28;20031;-75
2022/06/17 15:05:29;;;;;;;33.70;5.05;;;;;;;;;;5090041;28;20055;-75
2022/06/17 15:07:58;;;;;;;25.90;4.40;;;;;;;;;;5090271;28;20111;-73
2022/06/17 15:10:27;;;;;;;27.38;4.60;;;;;;;;;;5089873;28;20396;-79
2022/06/17 15:12:53;;;;;;;30.85;4.75;;;;;;;;;;5090085;28;20695;-74
2022/06/17 15:15:24;;;;;;;30.42;4.60;;;;;;;;;;5090123;28;20055;-74
2022/06/17 15:17:57;;;;;;;23.38;4.30;;;;;;;;;;5090364;28;20024;-76
2022/06/17 15:20:37;;;;;;;28.67;4.65;;;;;;;;;;5089964;28;20488;-78
2022/06/17 15:23:14;;;;;;;23.08;4.40;;;;;;;;;;5090197;28;20103;-78
2022/06/17 15:26:01;;;;;;;24.17;4.68;;;;;;;;;;5089828;28;20028;-80